Time;durP1;ratioP1;P1;durP2;ratioP2;P2;SDS_P1;SDS_P2;PMS_P1;PMS_P2;Temp;Humidity;BMP_temperature;BMP_pressure;BME280_temperature;BME280_humidity;BME280_pressure;Samples;Min_cycle;Max_cycle;Signal;HPM_P1;HPM_P2
2021/12/26 00:01:16;;;;;;;4.22;2.22;;;;;;;-3.76;60.84;100966.53;5075510;28;20027;-67
2021/12/26 00:03:41;;;;;;;5.25;2.58;;;;;;;-3.73;59.69;100961.31;5093491;28;20053;-66
2021/12/26 00:06:12;;;;;;;5.00;2.40;;;;;;;-3.77;60.42;100963.22;5093629;28;20095;-67
2021/12/26 00:08:39;;;;;;;7.13;2.30;;;;;;;-3.75;60.47;100963.91;5093619;28;20027;-67
2021/12/26 00:11:05;;;;;;;5.05;2.40;;;;;;;-3.72;59.91;100957.88;5075437;28;20118;-67
2021/12/26 00:13:31;;;;;;;5.05;2.40;;;;;;;-3.64;59.82;100964.09;5093537;28;20056;-67
2021/12/26 00:15:58;;;;;;;3.40;2.00;;;;;;;-3.64;59.52;100955.72;5093812;28;20470;-67
2021/12/26 00:18:23;;;;;;;5.05;2.22;;;;;;;-3.71;59.47;100960.31;5093507;28;20028;-67
2021/12/26 00:20:49;;;;;;;7.57;2.50;;;;;;;-3.77;59.20;100955.63;5093309;28;20016;-66
2021/12/26 00:23:16;;;;;;;7.55;2.80;;;;;;;-3.95;59.70;100951.63;5097252;28;20467;-66
2021/12/26 00:25:42;;;;;;;5.88;2.38;;;;;;;-3.96;59.51;100955.06;5078481;28;20498;-67
2021/12/26 00:28:07;;;;;;;6.53;2.50;;;;;;;-3.98;60.94;100945.03;5097541;28;20103;-67
2021/12/26 00:30:32;;;;;;;5.70;2.20;;;;;;;-3.96;60.54;100950.03;5097392;28;20374;-66
2021/12/26 00:32:58;;;;;;;5.53;2.20;;;;;;;-3.95;59.81;100952.44;5097444;28;20028;-68
2021/12/26 00:35:25;;;;;;;3.97;1.95;;;;;;;-3.89;59.73;100946.22;5097449;28;20016;-67
2021/12/26 00:37:50;;;;;;;6.53;2.30;;;;;;;-4.06;59.96;100947.19;5079204;28;20024;-68
2021/12/26 00:40:19;;;;;;;3.70;2.00;;;;;;;-3.89;59.93;100947.03;5096992;28;20077;-67
2021/12/26 00:42:46;;;;;;;5.50;2.13;;;;;;;-3.73;59.97;100944.44;5096921;28;20127;-67
2021/12/26 00:45:12;;;;;;;5.13;2.35;;;;;;;-3.90;59.60;100949.66;5078943;28;20061;-67
2021/12/26 00:47:38;;;;;;;6.45;2.22;;;;;;;-3.89;60.66;100934.41;5097128;28;20424;-67
2021/12/26 00:50:10;;;;;;;5.65;2.40;;;;;;;-3.82;60.07;100942.47;5078969;28;20111;-67
2021/12/26 00:52:36;;;;;;;4.05;2.20;;;;;;;-4.05;59.49;100940.47;5097288;28;20020;-67
2021/12/26 00:55:03;;;;;;;7.97;2.42;;;;;;;-3.86;59.58;100949.38;5096857;28;20127;-67
2021/12/26 00:57:28;;;;;;;3.45;1.85;;;;;;;-4.02;59.95;100948.66;5096977;28;20028;-67
2021/12/26 00:59:53;;;;;;;4.07;2.20;;;;;;;-3.81;60.81;100943.25;5097157;28;20107;-67
2021/12/26 01:02:19;;;;;;;5.72;2.40;;;;;;;-3.96;60.25;100945.78;5096918;28;20531;-66
2021/12/26 01:04:44;;;;;;;7.30;2.65;;;;;;;-3.95;60.11;100944.88;5096756;28;20056;-66
2021/12/26 01:07:24;;;;;;;6.72;2.25;;;;;;;-4.13;60.75;100934.13;5096884;28;20020;-66
2021/12/26 01:09:52;;;;;;;6.63;2.58;;;;;;;-3.80;60.08;100937.31;5096808;28;20066;-66
2021/12/26 01:12:18;;;;;;;6.00;2.17;;;;;;;-3.75;60.65;100938.66;5096697;28;20466;-66
2021/12/26 01:14:50;;;;;;;5.68;2.33;;;;;;;-3.79;59.82;100936.41;5096623;28;20016;-68
2021/12/26 01:17:19;;;;;;;4.57;2.05;;;;;;;-4.07;60.24;100948.13;5096987;28;20020;-66
2021/12/26 01:19:48;;;;;;;3.63;2.22;;;;;;;-3.94;60.48;100931.38;5078341;28;20537;-67
2021/12/26 01:22:15;;;;;;;4.72;2.03;;;;;;;-3.95;60.11;100937.28;5096524;28;20020;-66
2021/12/26 01:24:42;;;;;;;3.30;2.03;;;;;;;-3.81;59.72;100930.63;5096431;28;20054;-67
2021/12/26 01:27:07;;;;;;;4.65;2.42;;;;;;;-3.77;59.91;100943.00;5096360;28;20059;-67
2021/12/26 01:29:34;;;;;;;6.13;2.10;;;;;;;-3.99;61.03;100945.16;5096422;28;20410;-66
2021/12/26 01:32:00;;;;;;;6.88;2.50;;;;;;;-3.70;60.35;100951.81;5095899;28;20363;-67
2021/12/26 01:34:25;;;;;;;5.95;2.58;;;;;;;-3.89;61.02;100944.50;5078555;28;20521;-66
2021/12/26 01:36:51;;;;;;;5.45;2.30;;;;;;;-3.74;59.59;100941.97;5096309;28;20111;-67
2021/12/26 01:39:16;;;;;;;4.47;2.33;;;;;;;-3.80;60.16;100947.41;5096194;28;20059;-67
2021/12/26 01:41:43;;;;;;;5.93;2.47;;;;;;;-4.16;60.37;100928.44;5078056;28;20020;-66
2021/12/26 01:44:11;;;;;;;9.45;2.20;;;;;;;-3.95;60.46;100939.00;5096077;28;20027;-67
2021/12/26 01:46:38;;;;;;;4.43;2.40;;;;;;;-4.22;61.18;100944.75;5096081;28;20020;-67
2021/12/26 01:49:25;;;;;;;4.45;2.20;;;;;;;-4.12;61.03;100945.84;5096033;28;20485;-66
2021/12/26 01:51:53;;;;;;;4.07;2.42;;;;;;;-4.11;61.11;100947.47;5096002;28;20020;-66
2021/12/26 01:56:54;;;;;;;5.03;2.30;;;;;;;-3.94;60.47;100948.19;5096157;28;20115;-66
2021/12/26 01:59:20;;;;;;;7.20;2.42;;;;;;;-3.96;60.31;100940.72;5077705;28;20149;-67
2021/12/26 02:01:45;;;;;;;4.40;2.03;;;;;;;-4.18;61.13;100933.56;5095770;28;20020;-66
2021/12/26 02:04:11;;;;;;;5.35;2.20;;;;;;;-4.22;60.86;100928.81;5077432;28;20016;-67
2021/12/26 02:06:36;;;;;;;4.35;1.90;;;;;;;-3.99;60.39;100925.75;5077554;28;20482;-66
2021/12/26 02:09:02;;;;;;;6.15;2.45;;;;;;;-4.12;60.29;100929.88;5095599;28;20024;-66
2021/12/26 02:11:28;;;;;;;5.80;2.03;;;;;;;-4.32;60.74;100926.78;5077515;28;20024;-67
2021/12/26 02:13:53;;;;;;;5.50;2.47;;;;;;;-4.31;60.82;100923.38;5095748;28;20016;-68
2021/12/26 02:16:18;;;;;;;4.90;2.35;;;;;;;-4.24;61.41;100928.06;5095432;28;20031;-67
2021/12/26 02:18:44;;;;;;;4.15;2.05;;;;;;;-4.25;61.22;100929.78;5077328;28;20024;-66
2021/12/26 02:24:10;;;;;;;5.18;2.33;;;;;;;-4.37;61.55;100921.22;5096044;28;20051;-67
2021/12/26 02:29:19;;;;;;;4.75;2.10;;;;;;;-4.09;61.36;100920.41;5095528;28;20390;-67
2021/12/26 02:31:44;;;;;;;4.82;2.28;;;;;;;-4.29;60.81;100908.13;5095189;28;20028;-66
2021/12/26 02:34:10;;;;;;;4.68;2.20;;;;;;;-4.27;61.32;100913.13;5094959;28;20047;-66
2021/12/26 02:36:35;;;;;;;4.20;1.98;;;;;;;-4.41;60.70;100906.31;5095053;28;20042;-66
2021/12/26 02:39:01;;;;;;;3.63;1.88;;;;;;;-4.40;60.74;100902.91;5076858;28;20020;-67
2021/12/26 02:41:26;;;;;;;4.32;2.10;;;;;;;-4.19;59.99;100908.44;5095284;28;20035;-67
2021/12/26 02:43:52;;;;;;;4.50;2.22;;;;;;;-4.19;61.14;100908.44;5094177;28;20030;-66
2021/12/26 02:46:18;;;;;;;4.88;2.10;;;;;;;-4.31;60.83;100897.34;5094838;28;20020;-66
2021/12/26 02:48:43;;;;;;;4.43;2.28;;;;;;;-4.26;60.08;100909.69;5076684;28;20389;-65
2021/12/26 02:51:08;;;;;;;8.35;2.20;;;;;;;-4.40;61.17;100895.31;5076529;28;20074;-67
2021/12/26 02:53:34;;;;;;;3.88;2.25;;;;;;;-4.15;60.64;100898.06;5094669;28;20020;-67
2021/12/26 02:56:01;;;;;;;3.38;1.88;;;;;;;-4.43;61.30;100900.53;5076405;28;20063;-67
2021/12/26 02:58:27;;;;;;;5.32;2.33;;;;;;;-4.18;61.66;100893.19;5094756;28;20031;-67
2021/12/26 03:01:00;;;;;;;4.07;2.00;;;;;;;-4.32;60.97;100886.41;5094852;28;20074;-66
2021/12/26 03:03:26;;;;;;;;;;;;;;;-4.09;60.83;100889.31;5095000;28;20058;-65
2021/12/26 03:05:59;;;;;;;3.67;2.25;;;;;;;-3.96;58.92;100876.81;5076345;28;19951;-66
2021/12/26 03:08:24;;;;;;;;;;;;;;;-4.19;60.20;100885.72;5076684;28;20096;-66
2021/12/26 03:10:52;;;;;;;5.72;2.15;;;;;;;-4.35;60.52;100881.53;5094435;28;20014;-66
2021/12/26 03:13:17;;;;;;;5.95;2.38;;;;;;;-4.15;60.62;100880.41;5094455;28;20024;-66
2021/12/26 03:15:43;;;;;;;6.10;2.13;;;;;;;-4.02;59.00;100882.22;5094348;28;20027;-66
2021/12/26 03:18:09;;;;;;;4.10;2.13;;;;;;;-4.15;59.29;100890.50;5076162;28;20031;-66
2021/12/26 03:20:39;;;;;;;7.22;2.17;;;;;;;-4.03;58.98;100894.00;5094776;28;20043;-67
2021/12/26 03:23:08;;;;;;;5.20;2.20;;;;;;;-4.27;59.11;100891.22;5075910;28;20512;-67
2021/12/26 03:25:35;;;;;;;8.45;2.40;;;;;;;-3.93;58.91;100891.78;5094109;28;20028;-66
2021/12/26 03:28:04;;;;;;;4.05;2.00;;;;;;;-3.91;58.95;100895.84;5076029;28;20485;-67
2021/12/26 03:30:31;;;;;;;4.60;2.13;;;;;;;-4.02;58.61;100888.06;5093955;28;20032;-66
2021/12/26 03:32:59;;;;;;;5.32;2.10;;;;;;;-4.32;59.99;100876.31;5075853;28;20379;-66
2021/12/26 03:35:26;;;;;;;4.55;2.45;;;;;;;-4.40;60.30;100877.66;5075808;28;20019;-66
2021/12/26 03:37:53;;;;;;;5.55;2.15;;;;;;;-4.24;59.88;100870.03;5094127;28;20027;-66
2021/12/26 03:40:18;;;;;;;5.90;2.25;;;;;;;-4.16;59.76;100873.72;5075785;28;20535;-65
2021/12/26 03:42:43;;;;;;;4.07;2.25;;;;;;;-4.36;60.41;100869.03;5093900;28;20024;-66
2021/12/26 03:45:09;;;;;;;5.00;2.20;;;;;;;-4.36;60.06;100867.31;5093812;28;20085;-66
2021/12/26 03:47:37;;;;;;;3.47;2.00;;;;;;;-4.44;60.62;100868.66;5093980;28;20028;-66
2021/12/26 03:50:04;;;;;;;4.80;2.15;;;;;;;-4.55;61.11;100859.97;5094338;28;20082;-66
2021/12/26 03:52:30;;;;;;;6.35;2.22;;;;;;;-4.24;60.93;100865.00;5075568;28;20119;-66
2021/12/26 03:54:55;;;;;;;4.88;2.35;;;;;;;-4.05;60.36;100862.22;5075287;28;20470;-66
2021/12/26 03:57:20;;;;;;;5.25;2.30;;;;;;;-4.03;60.75;100857.88;5075589;28;20536;-67
2021/12/26 03:59:46;;;;;;;3.58;2.10;;;;;;;-4.20;60.81;100861.38;5093656;28;20490;-67
2021/12/26 04:02:13;;;;;;;4.30;2.25;;;;;;;-4.06;60.54;100858.03;5093626;28;20081;-67
2021/12/26 04:04:39;;;;;;;5.75;2.50;;;;;;;-4.21;60.26;100858.03;5093607;28;20023;-66
2021/12/26 04:07:04;;;;;;;5.90;2.40;;;;;;;-4.38;61.00;100858.22;5075482;28;20020;-66
2021/12/26 04:09:30;;;;;;;7.03;2.20;;;;;;;-4.27;60.69;100855.88;5093637;28;20489;-66
2021/12/26 04:11:55;;;;;;;7.60;2.35;;;;;;;-4.36;60.74;100851.38;5093784;28;20162;-66
2021/12/26 04:14:20;;;;;;;6.22;2.28;;;;;;;-4.09;60.86;100849.75;5093539;28;20446;-66
2021/12/26 04:16:46;;;;;;;4.93;2.03;;;;;;;-3.99;59.88;100851.75;5093466;28;20024;-65
2021/12/26 04:19:11;;;;;;;4.30;2.22;;;;;;;-4.01;60.19;100848.50;5075325;28;20016;-66
2021/12/26 04:21:37;;;;;;;4.45;2.08;;;;;;;-4.36;59.95;100837.03;5075529;28;20046;-66
2021/12/26 04:24:03;;;;;;;4.32;2.10;;;;;;;-4.41;60.93;100838.22;5093374;28;20437;-66
2021/12/26 04:26:28;;;;;;;4.65;2.33;;;;;;;-4.60;61.17;100838.47;5093355;28;20482;-66
2021/12/26 04:28:54;;;;;;;7.20;2.33;;;;;;;-4.46;60.50;100828.41;5075333;28;20077;-66
2021/12/26 04:31:19;;;;;;;9.27;2.40;;;;;;;-4.48;61.13;100836.97;5093312;28;20028;-66
2021/12/26 04:33:46;;;;;;;4.72;2.42;;;;;;;-4.36;61.74;100833.72;5075296;28;20081;-66
2021/12/26 04:36:13;;;;;;;5.35;2.30;;;;;;;-4.25;60.31;100825.53;5075158;28;20020;-66
2021/12/26 04:38:39;;;;;;;4.85;1.98;;;;;;;-4.42;60.08;100834.88;5074833;28;20028;-67
2021/12/26 04:41:05;;;;;;;4.38;2.30;;;;;;;-4.40;60.79;100845.69;5093329;28;20122;-65
2021/12/26 04:43:34;;;;;;;6.10;2.13;;;;;;;-4.57;60.38;100836.59;5092368;28;20048;-66
2021/12/26 04:46:01;;;;;;;3.70;1.73;;;;;;;-4.53;61.13;100832.16;5093333;28;20024;-66
2021/12/26 04:48:27;;;;;;;4.70;2.47;;;;;;;-4.36;60.15;100831.19;5093203;28;20016;-67
2021/12/26 04:50:52;;;;;;;3.65;2.00;;;;;;;-4.20;59.89;100842.03;5075216;28;20481;-67
2021/12/26 04:53:17;;;;;;;5.35;2.20;;;;;;;-4.26;59.25;100839.03;5075149;28;20089;-66
2021/12/26 04:55:43;;;;;;;2.63;1.80;;;;;;;-4.37;60.06;100835.44;5092532;28;20071;-66
2021/12/26 04:58:08;;;;;;;5.03;2.13;;;;;;;-4.47;60.94;100836.03;5093114;28;20107;-66
2021/12/26 05:00:33;;;;;;;3.67;2.13;;;;;;;-4.36;59.73;100838.75;5093093;28;20091;-67
2021/12/26 05:03:03;;;;;;;4.43;2.15;;;;;;;-4.39;59.98;100842.28;5074935;28;20024;-66
2021/12/26 05:05:28;;;;;;;5.45;2.10;;;;;;;-4.56;59.55;100820.53;5074890;28;20031;-66
2021/12/26 05:07:54;;;;;;;3.92;2.05;;;;;;;-4.43;60.38;100835.78;5094506;28;20020;-66
2021/12/26 05:10:20;;;;;;;4.72;2.08;;;;;;;-4.26;60.11;100831.44;5078591;28;20119;-66
2021/12/26 05:12:47;;;;;;;5.50;2.10;;;;;;;-4.18;60.20;100822.53;5096944;28;20103;-66
2021/12/26 05:15:13;;;;;;;3.63;2.05;;;;;;;-4.22;59.88;100831.19;5096763;28;20069;-66
2021/12/26 05:17:40;;;;;;;5.15;2.28;;;;;;;-4.05;59.61;100811.72;5096882;28;20466;-67
2021/12/26 05:20:07;;;;;;;4.40;2.10;;;;;;;-4.04;59.99;100819.19;5096571;28;20470;-65
2021/12/26 05:22:32;;;;;;;6.45;2.40;;;;;;;-4.28;60.57;100808.84;5096430;28;20074;-68
2021/12/26 05:24:57;;;;;;;3.72;2.00;;;;;;;-4.36;60.71;100811.00;5096717;28;20024;-66
2021/12/26 05:27:23;;;;;;;5.95;2.40;;;;;;;-4.27;60.41;100815.50;5096472;28;20381;-66
2021/12/26 05:29:48;;;;;;;5.63;2.15;;;;;;;-4.23;60.35;100821.19;5096358;28;20054;-66
2021/12/26 05:32:13;;;;;;;3.67;2.10;;;;;;;-4.23;60.36;100818.66;5078264;28;20016;-66
2021/12/26 05:34:38;;;;;;;5.10;2.03;;;;;;;-4.28;60.69;100808.84;5078096;28;20027;-67
2021/12/26 05:37:04;;;;;;;5.07;2.50;;;;;;;-4.44;61.25;100801.34;5096252;28;20028;-66
2021/12/26 05:39:29;;;;;;;2.83;1.77;;;;;;;-4.48;61.59;100797.41;5078196;28;20040;-66
2021/12/26 05:41:54;;;;;;;4.45;2.10;;;;;;;-4.56;62.12;100795.31;5078059;28;20377;-65
2021/12/26 05:44:20;;;;;;;4.30;2.22;;;;;;;-4.24;62.31;100806.94;5095997;28;20024;-65
2021/12/26 05:46:45;;;;;;;4.80;2.30;;;;;;;-4.21;61.16;100802.53;5096020;28;20074;-66
2021/12/26 05:49:11;;;;;;;4.22;2.20;;;;;;;-4.20;61.72;100814.25;5096051;28;20016;-66
2021/12/26 05:51:36;;;;;;;4.22;2.30;;;;;;;-4.34;61.59;100812.53;5095978;28;20024;-66
2021/12/26 05:54:01;;;;;;;3.65;1.90;;;;;;;-4.29;61.33;100787.03;5095858;28;20051;-66
2021/12/26 05:56:27;;;;;;;5.18;2.40;;;;;;;-4.30;61.30;100798.03;5095751;28;20398;-65
2021/12/26 05:58:52;;;;;;;4.38;2.10;;;;;;;-4.38;61.94;100798.47;5095837;28;20035;-65
2021/12/26 06:01:17;;;;;;;5.45;2.20;;;;;;;-4.31;62.59;100792.19;5095784;28;20032;-67
2021/12/26 06:03:43;;;;;;;4.53;2.10;;;;;;;-4.41;62.05;100798.66;5077556;28;20021;-66
2021/12/26 06:06:08;;;;;;;5.22;2.30;;;;;;;-4.28;61.88;100803.81;5095687;28;20024;-65
2021/12/26 06:08:34;;;;;;;5.28;2.20;;;;;;;-4.10;62.22;100797.66;5095640;28;20058;-65
2021/12/26 06:10:59;;;;;;;4.95;2.17;;;;;;;-4.17;61.04;100798.09;5095539;28;20460;-66
2021/12/26 06:13:25;;;;;;;4.43;2.33;;;;;;;-4.20;62.23;100799.13;5077389;28;20030;-66
2021/12/26 06:15:50;;;;;;;3.70;1.85;;;;;;;-4.12;61.19;100808.72;5095524;28;20024;-66
2021/12/26 06:18:16;;;;;;;5.20;2.30;;;;;;;-4.53;62.51;100791.81;5095113;28;20095;-66
2021/12/26 06:20:41;;;;;;;5.00;2.20;;;;;;;-4.40;61.95;100807.03;5076491;28;20071;-66
2021/12/26 06:23:07;;;;;;;5.70;2.33;;;;;;;-4.47;61.85;100803.25;5095375;28;20465;-66
2021/12/26 06:25:33;;;;;;;5.78;2.08;;;;;;;-4.68;62.49;100808.63;5077010;28;20046;-65
2021/12/26 06:27:58;;;;;;;6.63;2.42;;;;;;;-4.73;62.37;100804.75;5095508;28;20106;-66
2021/12/26 06:30:24;;;;;;;4.20;2.17;;;;;;;-4.45;62.39;100807.31;5095207;28;20035;-66
2021/12/26 06:32:50;;;;;;;4.50;2.38;;;;;;;-4.82;61.77;100773.31;5076900;28;20031;-65
2021/12/26 06:35:15;;;;;;;6.28;2.22;;;;;;;-4.35;61.55;100800.00;5095185;28;20027;-66
2021/12/26 06:37:40;;;;;;;4.07;2.10;;;;;;;-4.43;61.49;100792.06;5093853;28;20073;-67
2021/12/26 06:40:09;;;;;;;5.30;2.20;;;;;;;-4.47;61.70;100788.13;5076960;28;20055;-66
2021/12/26 06:42:40;;;;;;;4.85;2.20;;;;;;;-4.45;61.61;100792.19;5094934;28;20024;-66
2021/12/26 06:45:06;;;;;;;4.72;2.10;;;;;;;-4.32;62.16;100793.06;5094869;28;20099;-66
2021/12/26 06:47:32;;;;;;;5.97;2.60;;;;;;;-4.31;61.20;100791.38;5076770;28;20023;-66
2021/12/26 06:49:57;;;;;;;4.50;2.13;;;;;;;-4.32;60.66;100793.06;5094815;28;20023;-66
2021/12/26 06:52:22;;;;;;;4.45;2.55;;;;;;;-4.47;61.24;100790.63;5094967;28;20085;-67
2021/12/26 06:54:48;;;;;;;8.27;2.35;;;;;;;-4.28;61.13;100788.66;5076345;28;20044;-65
2021/12/26 06:57:14;;;;;;;3.50;1.95;;;;;;;-4.26;61.02;100791.06;5095568;28;20016;-66
2021/12/26 06:59:40;;;;;;;4.30;2.30;;;;;;;-4.39;60.45;100786.75;5094974;28;20024;-66
2021/12/26 07:02:05;;;;;;;5.50;2.33;;;;;;;-4.31;61.13;100791.38;5094556;28;20024;-65
2021/12/26 07:04:31;;;;;;;4.22;2.25;;;;;;;-4.43;60.82;100785.34;5076378;28;20020;-65
2021/12/26 07:06:56;;;;;;;6.75;2.20;;;;;;;-4.35;61.85;100790.72;5076302;28;20027;-65
2021/12/26 07:09:21;;;;;;;6.53;2.33;;;;;;;-4.10;60.62;100789.28;5095499;28;20074;-67
2021/12/26 07:11:47;;;;;;;5.40;2.25;;;;;;;-4.43;61.60;100787.84;5078000;28;20114;-66
2021/12/26 07:14:13;;;;;;;3.85;2.05;;;;;;;-4.31;61.40;100787.13;5095079;28;20093;-65
2021/12/26 07:16:38;;;;;;;7.13;2.35;;;;;;;-4.24;61.45;100791.81;5094384;28;20024;-67
2021/12/26 07:19:03;;;;;;;8.75;2.60;;;;;;;-4.34;61.11;100791.56;5094128;28;20012;-68
2021/12/26 07:21:29;;;;;;;4.38;2.30;;;;;;;-4.39;61.15;100791.81;5094452;28;20046;-65
2021/12/26 07:23:54;;;;;;;3.92;2.17;;;;;;;-4.58;61.01;100774.41;5075854;28;20017;-66
2021/12/26 07:26:19;;;;;;;5.32;2.10;;;;;;;-4.64;61.77;100771.44;5076140;28;20039;-65
2021/12/26 07:28:45;;;;;;;4.13;2.20;;;;;;;-4.58;62.36;100768.56;5076017;28;20129;-65
2021/12/26 07:31:10;;;;;;;5.43;2.33;;;;;;;-4.34;61.32;100781.47;5095729;28;20085;-68
2021/12/26 07:33:36;;;;;;;3.92;2.20;;;;;;;-4.23;61.55;100778.28;5096407;28;20382;-69
2021/12/26 07:36:03;;;;;;;4.55;2.40;;;;;;;-4.33;61.24;100765.41;5078317;28;20539;-65
2021/12/26 07:38:28;;;;;;;5.55;2.50;;;;;;;-4.49;61.77;100755.41;5096382;28;20108;-67
2021/12/26 07:40:54;;;;;;;6.10;2.20;;;;;;;-4.24;61.78;100792.63;5059481;28;20028;-66
2021/12/26 07:43:19;;;;;;;4.00;2.35;;;;;;;-4.49;62.06;100790.72;5094208;28;20028;-66
2021/12/26 07:45:44;;;;;;;4.28;2.38;;;;;;;-4.43;62.68;100790.38;5093788;28;20035;-65
2021/12/26 07:48:10;;;;;;;6.13;2.72;;;;;;;-4.62;63.01;100767.13;5094145;28;20064;-65
2021/12/26 07:50:35;;;;;;;7.63;2.67;;;;;;;-4.35;63.00;100782.34;5093609;28;20508;-65
2021/12/26 07:53:06;;;;;;;5.40;2.55;;;;;;;-4.60;63.50;100783.78;5093222;28;20389;-66
2021/12/26 07:55:32;;;;;;;4.60;1.98;;;;;;;-4.48;63.19;100774.69;5075420;28;20040;-65
2021/12/26 07:57:57;;;;;;;6.90;2.40;;;;;;;-4.45;62.82;100791.38;5093707;28;20356;-66
2021/12/26 08:00:23;;;;;;;4.80;2.30;;;;;;;-4.39;62.55;100774.16;5095182;28;20503;-67
2021/12/26 08:02:48;;;;;;;6.05;2.58;;;;;;;-4.09;62.25;100771.50;5094337;28;20026;-65
2021/12/26 08:05:15;;;;;;;5.70;2.88;;;;;;;-4.25;62.35;100775.06;5093225;28;20028;-65
2021/12/26 08:07:41;;;;;;;5.22;2.67;;;;;;;-4.48;63.70;100787.31;5093245;28;20095;-66
2021/12/26 08:10:08;;;;;;;7.28;2.88;;;;;;;-4.22;62.38;100784.97;5077997;28;20490;-66
2021/12/26 08:12:37;;;;;;;5.10;2.63;;;;;;;-4.38;61.71;100773.25;5094454;28;20110;-66
2021/12/26 08:15:03;;;;;;;4.30;2.33;;;;;;;-4.05;61.59;100776.38;5093162;28;20018;-66
2021/12/26 08:17:29;;;;;;;3.88;2.22;;;;;;;-4.16;61.43;100785.41;5092566;28;20024;-66
2021/12/26 08:19:56;;;;;;;5.07;2.22;;;;;;;-4.35;61.78;100787.38;5093388;28;20023;-66
2021/12/26 08:22:21;;;;;;;4.63;2.50;;;;;;;-4.11;60.96;100792.72;5075378;28;20020;-65
2021/12/26 08:24:47;;;;;;;6.15;2.60;;;;;;;-4.17;61.10;100791.38;5075463;28;20497;-66
2021/12/26 08:27:12;;;;;;;4.45;2.15;;;;;;;-4.07;61.16;100795.84;5093690;28;20020;-66
2021/12/26 08:29:37;;;;;;;4.80;2.30;;;;;;;-3.90;60.61;100798.16;5075279;28;20140;-65
2021/12/26 08:32:04;;;;;;;5.95;2.50;;;;;;;-3.84;60.81;100792.75;5075315;28;20020;-66
2021/12/26 08:34:29;;;;;;;4.38;2.45;;;;;;;-4.00;60.50;100792.03;5075488;28;20012;-66
2021/12/26 08:37:04;;;;;;;5.25;2.38;;;;;;;-4.10;60.58;100792.59;5093473;28;20022;-65
2021/12/26 08:39:39;;;;;;;6.90;2.50;;;;;;;-4.11;61.04;100785.13;5075293;28;20102;-66
2021/12/26 08:42:06;;;;;;;5.20;2.08;;;;;;;-4.22;61.54;100790.00;5075191;28;20040;-66
2021/12/26 08:44:33;;;;;;;5.35;2.45;;;;;;;-4.05;60.99;100799.91;5097020;28;20027;-66
2021/12/26 08:46:58;;;;;;;4.63;2.35;;;;;;;-4.16;61.77;100800.53;5078952;28;20028;-66
2021/12/26 08:49:23;;;;;;;4.07;2.20;;;;;;;-4.01;62.18;100803.84;5097207;28;20091;-65
2021/12/26 08:51:51;;;;;;;6.22;2.65;;;;;;;-3.86;61.70;100780.19;5097820;28;20025;-67
2021/12/26 08:54:16;;;;;;;5.40;2.58;;;;;;;-3.82;61.47;100795.19;5061377;28;20062;-66
2021/12/26 08:56:42;;;;;;;5.18;2.60;;;;;;;-3.66;60.35;100796.66;5095916;28;20048;-67
2021/12/26 08:59:09;;;;;;;8.85;2.28;;;;;;;-3.83;61.61;100789.31;5078214;28;20441;-68
2021/12/26 09:01:35;;;;;;;4.35;2.42;;;;;;;-3.66;60.80;100785.75;5079730;28;20020;-66
2021/12/26 09:04:00;;;;;;;3.78;2.28;;;;;;;-3.88;61.50;100799.69;5096946;28;20031;-66
2021/12/26 09:06:25;;;;;;;4.70;2.65;;;;;;;-3.73;61.68;100785.31;5078805;28;20012;-65
2021/12/26 09:08:51;;;;;;;5.07;2.58;;;;;;;-3.57;62.08;100795.28;5096363;28;20024;-67
2021/12/26 09:11:16;;;;;;;6.47;2.63;;;;;;;-3.60;61.44;100792.13;5094394;28;20485;-67
2021/12/26 09:13:43;;;;;;;5.10;2.50;;;;;;;-3.63;61.11;100771.19;5095513;28;20075;-66
2021/12/26 09:16:09;;;;;;;6.30;2.67;;;;;;;-3.93;61.21;100742.81;5080384;28;20024;-68
2021/12/26 09:18:34;;;;;;;3.67;2.30;;;;;;;-3.68;61.31;100798.47;5080898;28;20107;-67
2021/12/26 09:21:00;;;;;;;5.85;2.58;;;;;;;-3.56;61.06;100786.81;5096936;28;20382;-67
2021/12/26 09:23:25;;;;;;;4.55;2.58;;;;;;;-3.43;60.51;100789.38;5096840;28;20492;-66
2021/12/26 09:25:51;;;;;;;5.45;2.80;;;;;;;-3.29;60.59;100791.84;5096235;28;20024;-65
2021/12/26 09:28:16;;;;;;;6.38;2.70;;;;;;;-3.30;61.02;100789.41;5096260;28;20091;-66
2021/12/26 09:30:41;;;;;;;5.43;2.70;;;;;;;-3.13;59.87;100781.56;5076656;28;20028;-66
2021/12/26 09:33:07;;;;;;;8.35;3.20;;;;;;;-2.98;60.70;100787.34;5096170;28;20476;-66
2021/12/26 09:35:32;;;;;;;5.90;2.75;;;;;;;-3.07;60.25;100782.88;5096029;28;20501;-66
2021/12/26 09:37:57;;;;;;;4.35;2.70;;;;;;;-2.91;60.15;100778.44;5095957;28;20024;-66
2021/12/26 09:40:23;;;;;;;4.75;2.45;;;;;;;-2.83;60.43;100778.75;5096059;28;20111;-66
2021/12/26 09:42:49;;;;;;;8.40;2.63;;;;;;;-2.76;59.78;100762.28;5077933;28;20059;-68
2021/12/26 09:45:16;;;;;;;5.55;2.75;;;;;;;-3.02;59.88;100773.28;5095909;28;20054;-66
2021/12/26 09:47:43;;;;;;;6.95;2.67;;;;;;;-2.98;60.83;100777.22;5077028;28;20029;-67
2021/12/26 09:50:11;;;;;;;6.35;2.92;;;;;;;-2.83;60.54;100775.44;5094960;28;20101;-67
2021/12/26 09:52:40;;;;;;;4.85;2.63;;;;;;;-2.54;59.99;100776.03;5094601;28;20020;-66
2021/12/26 09:55:06;;;;;;;4.10;2.40;;;;;;;-2.42;59.88;100770.13;5094064;28;20065;-67
2021/12/26 09:57:31;;;;;;;8.32;2.60;;;;;;;-2.62;60.05;100758.84;5076317;28;20020;-67
2021/12/26 09:59:56;;;;;;;7.13;2.90;;;;;;;-2.50;61.23;100764.81;5094306;28;20035;-67
2021/12/26 10:02:22;;;;;;;5.70;3.25;;;;;;;-2.61;59.88;100719.97;5094848;28;20032;-68
2021/12/26 10:04:49;;;;;;;6.32;2.90;;;;;;;-2.52;59.85;100743.84;5097397;28;20107;-69
2021/12/26 10:07:22;;;;;;;6.68;3.08;;;;;;;-2.24;59.73;100754.63;5077699;28;20024;-65
2021/12/26 10:09:49;;;;;;;5.03;3.00;;;;;;;0.75;52.55;100717.91;5078561;28;20044;-70
2021/12/26 10:12:17;;;;;;;4.60;2.70;;;;;;;5.41;41.10;100752.28;5095622;28;20474;-68
2021/12/26 10:14:48;;;;;;;5.97;2.83;;;;;;;5.33;39.36;100754.78;5075156;28;20028;-66
2021/12/26 10:17:23;;;;;;;5.13;2.72;;;;;;;6.39;37.76;100750.91;5093788;28;20103;-67
2021/12/26 10:19:50;;;;;;;6.93;3.25;;;;;;;7.84;34.70;100753.28;5094916;28;20027;-67
2021/12/26 10:22:21;;;;;;;4.70;2.90;;;;;;;8.79;33.32;100741.81;5094094;28;20028;-68
2021/12/26 10:24:51;;;;;;;4.93;2.75;;;;;;;8.63;33.33;100737.63;5095195;28;20024;-68
2021/12/26 10:27:22;;;;;;;3.95;2.60;;;;;;;7.80;33.58;100726.31;5095751;28;20036;-68
2021/12/26 10:29:50;;;;;;;4.55;2.80;;;;;;;8.15;33.93;100731.88;5077060;28;20466;-67
2021/12/26 10:32:24;;;;;;;6.57;3.10;;;;;;;9.44;32.22;100720.47;5092390;28;20102;-68
2021/12/26 10:34:56;;;;;;;4.22;2.72;;;;;;;9.73;31.09;100699.97;5092701;28;20062;-68
2021/12/26 10:37:24;;;;;;;4.53;2.90;;;;;;;9.73;31.21;100726.56;5092970;28;20028;-69
2021/12/26 10:39:54;;;;;;;4.78;2.78;;;;;;;8.99;32.31;100721.50;5092729;28;20062;-69
2021/12/26 10:42:22;;;;;;;4.25;2.70;;;;;;;8.77;33.17;100713.63;5093038;28;20051;-69
2021/12/26 10:44:52;;;;;;;3.85;2.60;;;;;;;6.50;36.96;100722.34;5093195;28;20055;-69
2021/12/26 10:47:21;;;;;;;4.13;2.67;;;;;;;2.93;44.23;100710.22;5075255;28;20028;-67
2021/12/26 10:50:01;;;;;;;3.90;2.70;;;;;;;1.79;49.16;100704.09;5076703;28;20050;-67
2021/12/26 10:52:34;;;;;;;5.30;2.97;;;;;;;1.08;51.57;100693.16;5076612;28;20501;-68
2021/12/26 10:55:06;;;;;;;7.60;2.92;;;;;;;0.62;53.43;100702.00;5094547;28;20059;-67
2021/12/26 10:57:41;;;;;;;5.40;3.13;;;;;;;0.40;53.96;100674.94;5076512;28;20054;-70
2021/12/26 11:00:22;;;;;;;4.43;3.03;;;;;;;0.48;54.90;100702.31;5094721;28;20490;-67
2021/12/26 11:02:57;;;;;;;5.30;3.10;;;;;;;0.58;54.98;100695.56;5094672;28;20086;-67
2021/12/26 11:05:38;;;;;;;6.15;3.65;;;;;;;0.57;55.43;100691.41;5093880;28;20514;-67
2021/12/26 11:08:11;;;;;;;6.97;3.40;;;;;;;0.39;56.27;100691.16;5094951;28;20016;-66
2021/12/26 11:10:46;;;;;;;5.15;3.25;;;;;;;0.31;57.34;100681.59;5094645;28;20027;-67
2021/12/26 11:13:20;;;;;;;5.70;3.47;;;;;;;0.29;58.08;100683.47;5094548;28;20024;-67
2021/12/26 11:15:46;;;;;;;7.40;3.67;;;;;;;0.39;57.52;100670.81;5094490;28;20027;-67
2021/12/26 11:18:14;;;;;;;6.68;3.50;;;;;;;0.32;57.91;100672.25;5094743;28;20027;-66
2021/12/26 11:20:42;;;;;;;6.00;3.55;;;;;;;0.29;58.58;100675.84;5076088;28;20031;-67
2021/12/26 11:23:12;;;;;;;5.25;3.28;;;;;;;0.24;58.85;100657.59;5095983;28;20028;-69
2021/12/26 11:25:51;;;;;;;6.97;3.42;;;;;;;0.76;57.82;100663.53;5094435;28;20044;-67
2021/12/26 11:28:26;;;;;;;6.93;3.70;;;;;;;0.86;57.74;100661.88;5076135;28;20032;-66
2021/12/26 11:30:56;;;;;;;8.50;3.58;;;;;;;0.19;59.08;100644.44;5094182;28;20116;-67
2021/12/26 11:33:22;;;;;;;6.38;3.40;;;;;;;0.20;59.46;100658.75;5095072;28;20053;-67